sensor_id;sensor_type;location;lat;lon;timestamp;temperature;humidity
19037;DHT22;9651;49.138;8.900;2023-02-11T00:03:22;-0.70;99.90
19037;DHT22;9651;49.138;8.900;2023-02-11T00:07:24;-0.80;99.90
19037;DHT22;9651;49.138;8.900;2023-02-11T00:11:27;-0.80;99.90
19037;DHT22;9651;49.138;8.900;2023-02-11T00:15:30;-0.80;99.90
19037;DHT22;9651;49.138;8.900;2023-02-11T00:19:35;-0.80;99.90
19037;DHT22;9651;49.138;8.900;2023-02-11T00:23:37;-0.80;99.90
19037;DHT22;9651;49.138;8.900;2023-02-11T00:27:39;-0.80;99.90
19037;DHT22;9651;49.138;8.900;2023-02-11T00:31:41;-0.80;99.90
19037;DHT22;9651;49.138;8.900;2023-02-11T00:35:44;-0.90;99.90
19037;DHT22;9651;49.138;8.900;2023-02-11T00:39:46;-0.90;99.90
19037;DHT22;9651;49.138;8.900;2023-02-11T00:43:50;-0.90;99.90
19037;DHT22;9651;49.138;8.900;2023-02-11T00:47:52;-0.90;99.90
19037;DHT22;9651;49.138;8.900;2023-02-11T00:51:56;-0.90;99.90
19037;DHT22;9651;49.138;8.900;2023-02-11T00:55:58;-0.90;99.90
19037;DHT22;9651;49.138;8.900;2023-02-11T01:00:00;-0.90;99.90
19037;DHT22;9651;49.138;8.900;2023-02-11T01:04:02;-0.90;99.90
19037;DHT22;9651;49.138;8.900;2023-02-11T01:08:06;-0.80;99.90
19037;DHT22;9651;49.138;8.900;2023-02-11T01:12:08;-0.80;99.90
19037;DHT22;9651;49.138;8.900;2023-02-11T01:16:10;-0.80;99.90
19037;DHT22;9651;49.138;8.900;2023-02-11T01:20:15;-0.80;99.90
19037;DHT22;9651;49.138;8.900;2023-02-11T01:24:18;-0.80;99.90
19037;DHT22;9651;49.138;8.900;2023-02-11T01:28:22;-0.60;99.90
19037;DHT22;9651;49.138;8.900;2023-02-11T01:32:24;-0.50;99.90
19037;DHT22;9651;49.138;8.900;2023-02-11T01:36:28;-0.40;99.90
19037;DHT22;9651;49.138;8.900;2023-02-11T01:40:31;-0.40;99.90
19037;DHT22;9651;49.138;8.900;2023-02-11T01:44:38;-0.30;99.90
19037;DHT22;9651;49.138;8.900;2023-02-11T01:48:43;-0.20;99.90
19037;DHT22;9651;49.138;8.900;2023-02-11T01:52:45;-0.20;99.90
19037;DHT22;9651;49.138;8.900;2023-02-11T01:56:52;-0.10;99.90
19037;DHT22;9651;49.138;8.900;2023-02-11T02:01:16;0.00;99.90
19037;DHT22;9651;49.138;8.900;2023-02-11T02:05:25;0.20;99.90
19037;DHT22;9651;49.138;8.900;2023-02-11T02:09:32;0.30;99.90
19037;DHT22;9651;49.138;8.900;2023-02-11T02:13:39;0.30;99.90
19037;DHT22;9651;49.138;8.900;2023-02-11T02:17:45;0.50;99.90
19037;DHT22;9651;49.138;8.900;2023-02-11T02:26:45;0.60;99.90
19037;DHT22;9651;49.138;8.900;2023-02-11T02:31:08;0.70;99.90
19037;DHT22;9651;49.138;8.900;2023-02-11T02:35:23;0.70;99.90
19037;DHT22;9651;49.138;8.900;2023-02-11T02:39:31;0.70;99.90
19037;DHT22;9651;49.138;8.900;2023-02-11T02:43:36;0.80;99.90
19037;DHT22;9651;49.138;8.900;2023-02-11T02:47:39;0.80;99.90
19037;DHT22;9651;49.138;8.900;2023-02-11T02:52:15;0.90;99.90
19037;DHT22;9651;49.138;8.900;2023-02-11T02:56:23;0.90;99.90
19037;DHT22;9651;49.138;8.900;2023-02-11T03:00:33;0.90;99.90
19037;DHT22;9651;49.138;8.900;2023-02-11T03:04:42;0.80;99.90
19037;DHT22;9651;49.138;8.900;2023-02-11T03:08:50;0.80;99.90
19037;DHT22;9651;49.138;8.900;2023-02-11T03:12:55;0.80;99.90
19037;DHT22;9651;49.138;8.900;2023-02-11T03:16:59;0.80;99.90
19037;DHT22;9651;49.138;8.900;2023-02-11T03:21:04;0.80;99.90
19037;DHT22;9651;49.138;8.900;2023-02-11T03:25:08;0.90;99.90
19037;DHT22;9651;49.138;8.900;2023-02-11T03:29:16;0.90;99.90
19037;DHT22;9651;49.138;8.900;2023-02-11T03:33:24;0.90;99.90
19037;DHT22;9651;49.138;8.900;2023-02-11T03:37:29;1.00;99.90
19037;DHT22;9651;49.138;8.900;2023-02-11T03:41:35;1.00;99.90
19037;DHT22;9651;49.138;8.900;2023-02-11T03:45:38;1.00;99.90
19037;DHT22;9651;49.138;8.900;2023-02-11T03:49:42;1.00;99.90
19037;DHT22;9651;49.138;8.900;2023-02-11T03:53:46;1.00;99.90
19037;DHT22;9651;49.138;8.900;2023-02-11T03:57:50;1.00;99.90
19037;DHT22;9651;49.138;8.900;2023-02-11T04:01:52;1.10;99.90
19037;DHT22;9651;49.138;8.900;2023-02-11T04:05:54;1.10;99.90
19037;DHT22;9651;49.138;8.900;2023-02-11T04:09:56;1.10;99.90
19037;DHT22;9651;49.138;8.900;2023-02-11T04:13:59;1.20;99.90
19037;DHT22;9651;49.138;8.900;2023-02-11T04:18:01;1.30;99.90
19037;DHT22;9651;49.138;8.900;2023-02-11T04:22:03;1.30;99.90
19037;DHT22;9651;49.138;8.900;2023-02-11T04:26:05;1.30;99.90
19037;DHT22;9651;49.138;8.900;2023-02-11T04:30:10;1.40;99.90
19037;DHT22;9651;49.138;8.900;2023-02-11T04:34:13;1.30;99.90
19037;DHT22;9651;49.138;8.900;2023-02-11T04:38:15;1.40;99.90
19037;DHT22;9651;49.138;8.900;2023-02-11T04:42:17;1.40;99.90
19037;DHT22;9651;49.138;8.900;2023-02-11T04:46:20;1.40;99.90
19037;DHT22;9651;49.138;8.900;2023-02-11T04:50:22;1.40;99.90
19037;DHT22;9651;49.138;8.900;2023-02-11T04:54:24;1.40;99.90
19037;DHT22;9651;49.138;8.900;2023-02-11T04:58:26;1.50;99.90
19037;DHT22;9651;49.138;8.900;2023-02-11T05:02:29;1.50;99.90
19037;DHT22;9651;49.138;8.900;2023-02-11T05:06:31;1.50;99.90
19037;DHT22;9651;49.138;8.900;2023-02-11T05:10:33;1.50;99.90
19037;DHT22;9651;49.138;8.900;2023-02-11T05:14:35;1.50;99.90
19037;DHT22;9651;49.138;8.900;2023-02-11T05:18:38;1.50;99.90
19037;DHT22;9651;49.138;8.900;2023-02-11T05:22:40;1.60;99.90
19037;DHT22;9651;49.138;8.900;2023-02-11T05:26:42;1.60;99.90
19037;DHT22;9651;49.138;8.900;2023-02-11T05:30:44;1.60;99.90
19037;DHT22;9651;49.138;8.900;2023-02-11T05:34:47;1.70;99.90
19037;DHT22;9651;49.138;8.900;2023-02-11T05:38:49;1.70;99.90
19037;DHT22;9651;49.138;8.900;2023-02-11T05:42:51;1.80;99.90
19037;DHT22;9651;49.138;8.900;2023-02-11T05:46:53;1.80;99.90
19037;DHT22;9651;49.138;8.900;2023-02-11T05:50:56;1.90;99.90
19037;DHT22;9651;49.138;8.900;2023-02-11T05:54:58;1.90;99.90
19037;DHT22;9651;49.138;8.900;2023-02-11T05:58:59;1.90;99.90
19037;DHT22;9651;49.138;8.900;2023-02-11T06:03:01;1.90;99.90
19037;DHT22;9651;49.138;8.900;2023-02-11T06:07:05;1.90;99.90
19037;DHT22;9651;49.138;8.900;2023-02-11T06:11:07;1.90;99.90
19037;DHT22;9651;49.138;8.900;2023-02-11T06:15:09;1.90;99.90
19037;DHT22;9651;49.138;8.900;2023-02-11T06:19:11;1.90;99.90
19037;DHT22;9651;49.138;8.900;2023-02-11T06:23:14;1.90;99.90
19037;DHT22;9651;49.138;8.900;2023-02-11T06:27:16;1.90;99.90
19037;DHT22;9651;49.138;8.900;2023-02-11T06:31:18;1.90;99.90
19037;DHT22;9651;49.138;8.900;2023-02-11T06:35:20;1.90;99.90
19037;DHT22;9651;49.138;8.900;2023-02-11T06:39:23;1.90;99.90
19037;DHT22;9651;49.138;8.900;2023-02-11T06:43:25;1.90;99.90
19037;DHT22;9651;49.138;8.900;2023-02-11T06:47:27;1.90;99.90
19037;DHT22;9651;49.138;8.900;2023-02-11T06:51:29;1.90;99.90
19037;DHT22;9651;49.138;8.900;2023-02-11T06:55:33;1.90;99.90
19037;DHT22;9651;49.138;8.900;2023-02-11T06:59:35;2.00;99.90
19037;DHT22;9651;49.138;8.900;2023-02-11T07:03:39;2.00;99.90
19037;DHT22;9651;49.138;8.900;2023-02-11T07:07:42;2.00;99.90
19037;DHT22;9651;49.138;8.900;2023-02-11T07:11:45;2.00;99.90
19037;DHT22;9651;49.138;8.900;2023-02-11T07:15:47;2.00;99.90
19037;DHT22;9651;49.138;8.900;2023-02-11T07:19:49;2.00;99.90
19037;DHT22;9651;49.138;8.900;2023-02-11T07:23:52;2.00;99.90
19037;DHT22;9651;49.138;8.900;2023-02-11T07:27:55;2.10;99.90
19037;DHT22;9651;49.138;8.900;2023-02-11T07:31:57;2.20;99.90
19037;DHT22;9651;49.138;8.900;2023-02-11T07:35:59;2.20;99.90
19037;DHT22;9651;49.138;8.900;2023-02-11T07:40:01;2.30;99.90
19037;DHT22;9651;49.138;8.900;2023-02-11T07:44:04;2.80;99.90
19037;DHT22;9651;49.138;8.900;2023-02-11T07:48:06;3.60;99.90
19037;DHT22;9651;49.138;8.900;2023-02-11T07:52:08;3.70;99.90
19037;DHT22;9651;49.138;8.900;2023-02-11T07:56:11;3.60;99.90
19037;DHT22;9651;49.138;8.900;2023-02-11T08:00:16;3.50;99.90
19037;DHT22;9651;49.138;8.900;2023-02-11T08:04:18;3.50;99.90
19037;DHT22;9651;49.138;8.900;2023-02-11T08:08:20;3.50;99.90
19037;DHT22;9651;49.138;8.900;2023-02-11T08:12:21;3.60;99.90
19037;DHT22;9651;49.138;8.900;2023-02-11T08:16:26;3.70;99.90
19037;DHT22;9651;49.138;8.900;2023-02-11T08:20:28;3.70;99.90
19037;DHT22;9651;49.138;8.900;2023-02-11T08:24:30;3.70;99.90
19037;DHT22;9651;49.138;8.900;2023-02-11T08:28:34;3.80;99.90
19037;DHT22;9651;49.138;8.900;2023-02-11T08:32:37;3.90;99.90
19037;DHT22;9651;49.138;8.900;2023-02-11T08:36:41;4.00;99.90
19037;DHT22;9651;49.138;8.900;2023-02-11T08:40:44;4.00;99.90
19037;DHT22;9651;49.138;8.900;2023-02-11T08:44:46;4.10;99.90
19037;DHT22;9651;49.138;8.900;2023-02-11T08:48:49;4.20;99.90
19037;DHT22;9651;49.138;8.900;2023-02-11T08:52:51;4.40;99.90
19037;DHT22;9651;49.138;8.900;2023-02-11T08:56:53;4.80;99.90
19037;DHT22;9651;49.138;8.900;2023-02-11T09:00:55;5.10;99.90
19037;DHT22;9651;49.138;8.900;2023-02-11T09:04:58;5.30;99.90
19037;DHT22;9651;49.138;8.900;2023-02-11T09:09:00;5.70;99.90
19037;DHT22;9651;49.138;8.900;2023-02-11T09:13:02;6.30;99.90
19037;DHT22;9651;49.138;8.900;2023-02-11T09:17:04;7.00;99.90
19037;DHT22;9651;49.138;8.900;2023-02-11T09:21:08;7.40;99.90
19037;DHT22;9651;49.138;8.900;2023-02-11T09:25:10;7.70;99.90
19037;DHT22;9651;49.138;8.900;2023-02-11T09:29:12;8.00;99.90
19037;DHT22;9651;49.138;8.900;2023-02-11T09:33:14;8.20;99.90
19037;DHT22;9651;49.138;8.900;2023-02-11T09:37:17;8.00;99.90
19037;DHT22;9651;49.138;8.900;2023-02-11T09:45:48;8.30;99.90
19037;DHT22;9651;49.138;8.900;2023-02-11T09:49:53;8.50;99.90
19037;DHT22;9651;49.138;8.900;2023-02-11T09:54:03;8.80;99.90
19037;DHT22;9651;49.138;8.900;2023-02-11T09:58:11;9.10;99.90
19037;DHT22;9651;49.138;8.900;2023-02-11T10:02:18;9.70;99.90
19037;DHT22;9651;49.138;8.900;2023-02-11T10:06:43;10.00;99.90
19037;DHT22;9651;49.138;8.900;2023-02-11T10:10:51;9.90;99.90
19037;DHT22;9651;49.138;8.900;2023-02-11T10:15:06;9.80;99.90
19037;DHT22;9651;49.138;8.900;2023-02-11T10:19:19;10.00;99.90
19037;DHT22;9651;49.138;8.900;2023-02-11T10:23:27;10.30;99.90
19037;DHT22;9651;49.138;8.900;2023-02-11T10:27:34;10.90;99.90
19037;DHT22;9651;49.138;8.900;2023-02-11T10:31:40;11.10;99.90
19037;DHT22;9651;49.138;8.900;2023-02-11T10:35:42;11.50;99.90
19037;DHT22;9651;49.138;8.900;2023-02-11T10:39:45;12.00;99.90
19037;DHT22;9651;49.138;8.900;2023-02-11T10:43:49;12.10;99.90
19037;DHT22;9651;49.138;8.900;2023-02-11T10:47:51;12.00;99.90
19037;DHT22;9651;49.138;8.900;2023-02-11T10:52:12;11.60;99.90
19037;DHT22;9651;49.138;8.900;2023-02-11T10:56:22;11.90;99.90
19037;DHT22;9651;49.138;8.900;2023-02-11T11:00:33;11.90;99.90
19037;DHT22;9651;49.138;8.900;2023-02-11T11:04:40;12.00;99.90
19037;DHT22;9651;49.138;8.900;2023-02-11T11:08:46;12.20;99.90
19037;DHT22;9651;49.138;8.900;2023-02-11T11:12:48;12.60;99.90
19037;DHT22;9651;49.138;8.900;2023-02-11T11:16:52;13.30;99.90
19037;DHT22;9651;49.138;8.900;2023-02-11T11:20:56;14.00;99.90
19037;DHT22;9651;49.138;8.900;2023-02-11T11:24:58;14.20;99.90
19037;DHT22;9651;49.138;8.900;2023-02-11T11:29:06;14.30;99.90
19037;DHT22;9651;49.138;8.900;2023-02-11T11:33:18;13.80;99.90
19037;DHT22;9651;49.138;8.900;2023-02-11T11:37:23;14.50;99.90
19037;DHT22;9651;49.138;8.900;2023-02-11T11:41:27;14.00;99.90
19037;DHT22;9651;49.138;8.900;2023-02-11T11:45:30;13.50;99.90
19037;DHT22;9651;49.138;8.900;2023-02-11T11:49:35;12.70;99.90
19037;DHT22;9651;49.138;8.900;2023-02-11T11:53:44;12.20;99.90
19037;DHT22;9651;49.138;8.900;2023-02-11T11:57:49;12.90;99.90
19037;DHT22;9651;49.138;8.900;2023-02-11T12:02:03;14.70;99.90
19037;DHT22;9651;49.138;8.900;2023-02-11T12:06:21;16.10;99.90
19037;DHT22;9651;49.138;8.900;2023-02-11T12:10:43;16.60;99.90
19037;DHT22;9651;49.138;8.900;2023-02-11T12:14:53;16.10;99.90
19037;DHT22;9651;49.138;8.900;2023-02-11T12:19:23;15.80;99.90
19037;DHT22;9651;49.138;8.900;2023-02-11T12:23:40;15.30;99.90
19037;DHT22;9651;49.138;8.900;2023-02-11T12:27:51;14.40;99.90
19037;DHT22;9651;49.138;8.900;2023-02-11T12:32:05;13.40;99.90
19037;DHT22;9651;49.138;8.900;2023-02-11T12:36:15;12.60;99.90
19037;DHT22;9651;49.138;8.900;2023-02-11T12:40:29;12.20;99.90
19037;DHT22;9651;49.138;8.900;2023-02-11T12:44:39;12.20;99.90
19037;DHT22;9651;49.138;8.900;2023-02-11T12:49:01;11.40;99.90
19037;DHT22;9651;49.138;8.900;2023-02-11T12:53:18;11.20;99.90
19037;DHT22;9651;49.138;8.900;2023-02-11T12:57:25;11.30;99.90
19037;DHT22;9651;49.138;8.900;2023-02-11T13:01:31;11.30;99.90
19037;DHT22;9651;49.138;8.900;2023-02-11T13:05:38;11.00;99.90
19037;DHT22;9651;49.138;8.900;2023-02-11T13:09:44;11.10;99.90
19037;DHT22;9651;49.138;8.900;2023-02-11T13:13:52;11.30;99.90
19037;DHT22;9651;49.138;8.900;2023-02-11T13:17:59;11.20;99.90
19037;DHT22;9651;49.138;8.900;2023-02-11T13:22:08;11.20;99.90
19037;DHT22;9651;49.138;8.900;2023-02-11T13:26:16;11.30;99.90
19037;DHT22;9651;49.138;8.900;2023-02-11T13:30:25;11.30;99.90
19037;DHT22;9651;49.138;8.900;2023-02-11T13:34:54;11.20;99.90
19037;DHT22;9651;49.138;8.900;2023-02-11T13:38:59;10.90;99.90
19037;DHT22;9651;49.138;8.900;2023-02-11T13:43:04;11.10;99.90
19037;DHT22;9651;49.138;8.900;2023-02-11T13:47:24;11.30;99.90
19037;DHT22;9651;49.138;8.900;2023-02-11T13:51:35;11.00;99.90
19037;DHT22;9651;49.138;8.900;2023-02-11T13:55:38;10.90;99.90
19037;DHT22;9651;49.138;8.900;2023-02-11T13:59:45;11.00;99.90
19037;DHT22;9651;49.138;8.900;2023-02-11T14:04:18;11.20;99.90
19037;DHT22;9651;49.138;8.900;2023-02-11T14:08:58;11.30;99.90
19037;DHT22;9651;49.138;8.900;2023-02-11T14:13:21;11.10;99.90
19037;DHT22;9651;49.138;8.900;2023-02-11T14:17:31;10.90;99.90
19037;DHT22;9651;49.138;8.900;2023-02-11T14:21:37;10.90;99.90
19037;DHT22;9651;49.138;8.900;2023-02-11T14:25:41;10.80;99.90
19037;DHT22;9651;49.138;8.900;2023-02-11T14:29:49;10.90;99.90
19037;DHT22;9651;49.138;8.900;2023-02-11T14:34:13;11.00;99.90
19037;DHT22;9651;49.138;8.900;2023-02-11T14:38:24;11.00;99.90
19037;DHT22;9651;49.138;8.900;2023-02-11T14:42:28;11.00;99.90
19037;DHT22;9651;49.138;8.900;2023-02-11T14:46:31;10.90;99.90
19037;DHT22;9651;49.138;8.900;2023-02-11T14:50:38;10.80;99.90
19037;DHT22;9651;49.138;8.900;2023-02-11T14:54:43;10.70;99.90
19037;DHT22;9651;49.138;8.900;2023-02-11T14:58:46;10.60;99.90
19037;DHT22;9651;49.138;8.900;2023-02-11T15:02:48;10.50;99.90
19037;DHT22;9651;49.138;8.900;2023-02-11T15:06:50;10.40;99.90
19037;DHT22;9651;49.138;8.900;2023-02-11T15:10:54;10.50;99.90
19037;DHT22;9651;49.138;8.900;2023-02-11T15:14:57;10.40;99.90
19037;DHT22;9651;49.138;8.900;2023-02-11T15:19:02;10.30;99.90
19037;DHT22;9651;49.138;8.900;2023-02-11T15:23:07;10.10;99.90
19037;DHT22;9651;49.138;8.900;2023-02-11T15:27:13;9.90;99.90
19037;DHT22;9651;49.138;8.900;2023-02-11T15:31:16;9.80;99.90
19037;DHT22;9651;49.138;8.900;2023-02-11T15:35:19;9.50;99.90
19037;DHT22;9651;49.138;8.900;2023-02-11T15:39:30;9.40;99.90
19037;DHT22;9651;49.138;8.900;2023-02-11T15:43:44;9.20;99.90
19037;DHT22;9651;49.138;8.900;2023-02-11T15:47:48;9.10;99.90
19037;DHT22;9651;49.138;8.900;2023-02-11T15:51:52;9.00;99.90
19037;DHT22;9651;49.138;8.900;2023-02-11T15:56:03;9.00;99.90
19037;DHT22;9651;49.138;8.900;2023-02-11T16:00:14;9.10;99.90
19037;DHT22;9651;49.138;8.900;2023-02-11T16:04:18;9.00;99.90
19037;DHT22;9651;49.138;8.900;2023-02-11T16:08:22;9.00;99.90
19037;DHT22;9651;49.138;8.900;2023-02-11T16:12:24;8.90;99.90
19037;DHT22;9651;49.138;8.900;2023-02-11T16:16:30;8.90;99.90
19037;DHT22;9651;49.138;8.900;2023-02-11T16:20:33;8.90;99.90
19037;DHT22;9651;49.138;8.900;2023-02-11T16:24:36;8.80;99.90
19037;DHT22;9651;49.138;8.900;2023-02-11T16:28:39;8.70;99.90
19037;DHT22;9651;49.138;8.900;2023-02-11T16:32:43;8.70;99.90
19037;DHT22;9651;49.138;8.900;2023-02-11T16:36:45;8.60;99.90
19037;DHT22;9651;49.138;8.900;2023-02-11T16:40:47;8.50;99.90
19037;DHT22;9651;49.138;8.900;2023-02-11T16:44:49;8.20;99.90
19037;DHT22;9651;49.138;8.900;2023-02-11T16:48:53;7.90;99.90
19037;DHT22;9651;49.138;8.900;2023-02-11T16:52:55;7.90;99.90
19037;DHT22;9651;49.138;8.900;2023-02-11T16:57:00;7.90;99.90
19037;DHT22;9651;49.138;8.900;2023-02-11T17:01:03;7.90;99.90
19037;DHT22;9651;49.138;8.900;2023-02-11T17:05:10;7.90;99.90
19037;DHT22;9651;49.138;8.900;2023-02-11T17:09:18;7.90;99.90
19037;DHT22;9651;49.138;8.900;2023-02-11T17:13:20;8.00;99.90
19037;DHT22;9651;49.138;8.900;2023-02-11T17:17:22;8.00;99.90
19037;DHT22;9651;49.138;8.900;2023-02-11T17:21:26;7.90;99.90
19037;DHT22;9651;49.138;8.900;2023-02-11T17:25:28;7.90;99.90
19037;DHT22;9651;49.138;8.900;2023-02-11T17:29:30;7.80;99.90
19037;DHT22;9651;49.138;8.900;2023-02-11T17:33:31;7.80;99.90
19037;DHT22;9651;49.138;8.900;2023-02-11T17:37:35;7.70;99.90
19037;DHT22;9651;49.138;8.900;2023-02-11T17:41:37;7.70;99.90
19037;DHT22;9651;49.138;8.900;2023-02-11T17:45:40;7.60;99.90
19037;DHT22;9651;49.138;8.900;2023-02-11T17:49:42;7.60;99.90
19037;DHT22;9651;49.138;8.900;2023-02-11T17:53:45;7.60;99.90
19037;DHT22;9651;49.138;8.900;2023-02-11T17:57:47;7.50;99.90
19037;DHT22;9651;49.138;8.900;2023-02-11T18:01:49;7.40;99.90
19037;DHT22;9651;49.138;8.900;2023-02-11T18:05:50;7.50;99.90
19037;DHT22;9651;49.138;8.900;2023-02-11T18:09:54;7.50;99.90
19037;DHT22;9651;49.138;8.900;2023-02-11T18:13:57;7.50;99.90
19037;DHT22;9651;49.138;8.900;2023-02-11T18:17:59;7.40;99.90
19037;DHT22;9651;49.138;8.900;2023-02-11T18:22:01;7.50;99.90
19037;DHT22;9651;49.138;8.900;2023-02-11T18:26:07;7.40;99.90
19037;DHT22;9651;49.138;8.900;2023-02-11T18:30:13;7.40;99.90
19037;DHT22;9651;49.138;8.900;2023-02-11T18:34:16;7.40;99.90
19037;DHT22;9651;49.138;8.900;2023-02-11T18:38:18;7.40;99.90
19037;DHT22;9651;49.138;8.900;2023-02-11T18:42:21;7.40;99.90
19037;DHT22;9651;49.138;8.900;2023-02-11T18:46:23;7.40;99.90
19037;DHT22;9651;49.138;8.900;2023-02-11T18:50:25;7.30;99.90
19037;DHT22;9651;49.138;8.900;2023-02-11T18:54:27;7.10;99.90
19037;DHT22;9651;49.138;8.900;2023-02-11T18:58:30;6.90;99.90
19037;DHT22;9651;49.138;8.900;2023-02-11T19:02:32;6.80;99.90
19037;DHT22;9651;49.138;8.900;2023-02-11T19:06:36;6.70;99.90
19037;DHT22;9651;49.138;8.900;2023-02-11T19:10:39;6.70;99.90
19037;DHT22;9651;49.138;8.900;2023-02-11T19:14:50;6.70;99.90
19037;DHT22;9651;49.138;8.900;2023-02-11T19:19:00;6.60;99.90
19037;DHT22;9651;49.138;8.900;2023-02-11T19:23:01;6.40;99.90
19037;DHT22;9651;49.138;8.900;2023-02-11T19:27:04;6.40;99.90
19037;DHT22;9651;49.138;8.900;2023-02-11T19:31:08;6.40;99.90
19037;DHT22;9651;49.138;8.900;2023-02-11T19:35:09;6.20;99.90
19037;DHT22;9651;49.138;8.900;2023-02-11T19:39:11;6.20;99.90
19037;DHT22;9651;49.138;8.900;2023-02-11T19:43:13;6.20;99.90
19037;DHT22;9651;49.138;8.900;2023-02-11T19:47:17;6.10;99.90
19037;DHT22;9651;49.138;8.900;2023-02-11T19:51:19;6.10;99.90
19037;DHT22;9651;49.138;8.900;2023-02-11T19:55:21;6.00;99.90
19037;DHT22;9651;49.138;8.900;2023-02-11T19:59:24;6.00;99.90
19037;DHT22;9651;49.138;8.900;2023-02-11T20:03:27;6.00;99.90
19037;DHT22;9651;49.138;8.900;2023-02-11T20:07:29;6.10;99.90
19037;DHT22;9651;49.138;8.900;2023-02-11T20:11:32;6.10;99.90
19037;DHT22;9651;49.138;8.900;2023-02-11T20:15:35;6.10;99.90
19037;DHT22;9651;49.138;8.900;2023-02-11T20:19:38;6.10;99.90
19037;DHT22;9651;49.138;8.900;2023-02-11T20:23:40;6.20;99.90
19037;DHT22;9651;49.138;8.900;2023-02-11T20:27:44;6.10;99.90
19037;DHT22;9651;49.138;8.900;2023-02-11T20:31:47;6.00;99.90
19037;DHT22;9651;49.138;8.900;2023-02-11T20:35:56;5.90;99.90
19037;DHT22;9651;49.138;8.900;2023-02-11T20:39:58;5.80;99.90
19037;DHT22;9651;49.138;8.900;2023-02-11T20:44:02;5.80;99.90
19037;DHT22;9651;49.138;8.900;2023-02-11T20:48:05;5.90;99.90
19037;DHT22;9651;49.138;8.900;2023-02-11T20:52:08;5.90;99.90
19037;DHT22;9651;49.138;8.900;2023-02-11T20:56:11;5.90;99.90
19037;DHT22;9651;49.138;8.900;2023-02-11T21:00:13;5.80;99.90
19037;DHT22;9651;49.138;8.900;2023-02-11T21:04:17;5.90;99.90
19037;DHT22;9651;49.138;8.900;2023-02-11T21:08:20;6.00;99.90
19037;DHT22;9651;49.138;8.900;2023-02-11T21:12:22;6.00;99.90
19037;DHT22;9651;49.138;8.900;2023-02-11T21:16:24;5.90;99.90
19037;DHT22;9651;49.138;8.900;2023-02-11T21:20:26;5.80;99.90
19037;DHT22;9651;49.138;8.900;2023-02-11T21:24:30;5.80;99.90
19037;DHT22;9651;49.138;8.900;2023-02-11T21:28:32;5.90;99.90
19037;DHT22;9651;49.138;8.900;2023-02-11T21:32:34;5.90;99.90
19037;DHT22;9651;49.138;8.900;2023-02-11T21:36:35;5.90;99.90
19037;DHT22;9651;49.138;8.900;2023-02-11T21:40:39;5.80;99.90
19037;DHT22;9651;49.138;8.900;2023-02-11T21:44:41;5.80;99.90
19037;DHT22;9651;49.138;8.900;2023-02-11T21:48:42;5.70;99.90
19037;DHT22;9651;49.138;8.900;2023-02-11T21:52:45;5.70;99.90
19037;DHT22;9651;49.138;8.900;2023-02-11T21:56:50;5.80;99.90
19037;DHT22;9651;49.138;8.900;2023-02-11T22:00:52;5.80;99.90
19037;DHT22;9651;49.138;8.900;2023-02-11T22:04:54;5.70;99.90
19037;DHT22;9651;49.138;8.900;2023-02-11T22:08:56;5.70;99.90
19037;DHT22;9651;49.138;8.900;2023-02-11T22:13:00;5.70;99.90
19037;DHT22;9651;49.138;8.900;2023-02-11T22:17:02;5.70;99.90
19037;DHT22;9651;49.138;8.900;2023-02-11T22:21:06;5.50;99.90
19037;DHT22;9651;49.138;8.900;2023-02-11T22:25:08;5.50;99.90
19037;DHT22;9651;49.138;8.900;2023-02-11T22:29:11;5.50;99.90
19037;DHT22;9651;49.138;8.900;2023-02-11T22:33:13;5.60;99.90
19037;DHT22;9651;49.138;8.900;2023-02-11T22:37:15;5.50;99.90
19037;DHT22;9651;49.138;8.900;2023-02-11T22:41:18;5.50;99.90
19037;DHT22;9651;49.138;8.900;2023-02-11T22:45:21;5.50;99.90
19037;DHT22;9651;49.138;8.900;2023-02-11T22:49:23;5.50;99.90
19037;DHT22;9651;49.138;8.900;2023-02-11T22:53:25;5.40;99.90
19037;DHT22;9651;49.138;8.900;2023-02-11T22:57:27;5.40;99.90
19037;DHT22;9651;49.138;8.900;2023-02-11T23:01:31;5.40;99.90
19037;DHT22;9651;49.138;8.900;2023-02-11T23:05:37;5.40;99.90
19037;DHT22;9651;49.138;8.900;2023-02-11T23:09:39;5.30;99.90
19037;DHT22;9651;49.138;8.900;2023-02-11T23:13:43;5.30;99.90
19037;DHT22;9651;49.138;8.900;2023-02-11T23:17:47;5.30;99.90
19037;DHT22;9651;49.138;8.900;2023-02-11T23:21:50;5.40;99.90
19037;DHT22;9651;49.138;8.900;2023-02-11T23:25:52;5.40;99.90
19037;DHT22;9651;49.138;8.900;2023-02-11T23:29:54;5.30;99.90
19037;DHT22;9651;49.138;8.900;2023-02-11T23:33:58;5.30;99.90
19037;DHT22;9651;49.138;8.900;2023-02-11T23:38:00;5.30;99.90
19037;DHT22;9651;49.138;8.900;2023-02-11T23:42:03;5.40;99.90
19037;DHT22;9651;49.138;8.900;2023-02-11T23:46:05;5.50;99.90
19037;DHT22;9651;49.138;8.900;2023-02-11T23:50:10;5.60;99.90
19037;DHT22;9651;49.138;8.900;2023-02-11T23:54:13;5.60;99.90
19037;DHT22;9651;49.138;8.900;2023-02-11T23:58:15;5.70;99.90
